Hovedside
METAR-TAF:

METAR-TAF

Lufthavner :

Malmö lufthavn

Malmö, Sverige

breddegrad: 55-33N, lengdegrad: 013-22E, høyde over havet: 106 m

Gjeldene værobservasjon

Denne rapporten ble laget for 14 minutter siden, klokken 12:50 UTC
Vind 10 kt fra Vest, skiftende mellom Sørvest og Vest-nordvest
Temperatur 22°C
Luftfuktighet 57%
Trykk 1016 hPa
Sikt 10 km eller mer
Spredte skyer i en høyde av 4000 ft

METAR: ESMS 151250Z 27010KT 230V300 9999 SCT040 22/13 Q1016

Tid: 15:04 (13:04 UTC)

Varsel

Denne rapporten ble laget for 1 time og 49 minutter siden, klokken 11:15 UTC
Varsel gyldig fra 15. klokken 12 UTC til 16. klokken 12 UTC
Vind 8 kt fra Vest-sørvest
Sikt 10 km eller mer
Spredte skyer i en høyde av 2500 ft
Midlertidig
fra 15. klokken 13 UTC til 15. klokken 17 UTC
Spredte skyer i en høyde av 2000 ft, Bygeskyer.
regnbyger

TAF: ESMS 151115Z 1512/1612 24008KT 9999 SCT025 TEMPO 1513/1517 SHRA SCT020CB

Værobservasjoner og værvarsel for over 4000 flyplasser (METAR- og TAF-rapporter).

Tilgjengelige stasjoner er representert av de røde og gule prikkene på kartet.

Hold musepekeren over prikken for å se navnet på stasjonen.

Klikk så for å se værobservasjoner og -varsler.

For å forandre kartet kan du klikke på den grønne knappen med svart kryss for å zoome inn, på den grønne knappen med strek for å zoome ut, eller på de grønne pilene for å se tilstøtende kart.


METAR-TAF: